createdAt,value
2023-02-18T00:04:01.579Z,0
2023-02-18T00:09:05.730Z,0
2023-02-18T00:14:10.020Z,0
2023-02-18T00:19:14.053Z,0
2023-02-18T00:24:18.214Z,0
2023-02-18T00:29:22.366Z,0
2023-02-18T00:34:26.527Z,0
2023-02-18T00:39:30.669Z,0
2023-02-18T00:44:34.871Z,0
2023-02-18T00:49:39.015Z,0
2023-02-18T00:54:43.177Z,0
2023-02-18T00:59:47.326Z,0
2023-02-18T01:04:51.564Z,0
2023-02-18T01:09:55.634Z,0
2023-02-18T01:14:59.845Z,0
2023-02-18T01:20:03.982Z,0
2023-02-18T01:25:08.154Z,0
2023-02-18T01:30:12.351Z,0
2023-02-18T01:35:16.515Z,0
2023-02-18T01:40:18.717Z,0
2023-02-18T01:45:22.889Z,0
2023-02-18T01:50:27.054Z,0
2023-02-18T01:55:29.343Z,0
2023-02-18T02:00:33.507Z,0
2023-02-18T02:05:37.650Z,0
2023-02-18T02:10:41.829Z,0
2023-02-18T02:15:45.959Z,0
2023-02-18T02:20:50.129Z,0
2023-02-18T02:25:54.316Z,0
2023-02-18T02:30:58.476Z,0
2023-02-18T02:36:02.613Z,0
2023-02-18T02:41:06.770Z,0
2023-02-18T02:46:11.553Z,0
2023-02-18T02:51:15.097Z,0
2023-02-18T02:56:19.246Z,0
2023-02-18T03:01:23.469Z,0
2023-02-18T03:06:27.590Z,0
2023-02-18T03:11:31.740Z,0
2023-02-18T03:16:34.077Z,0
2023-02-18T03:21:38.210Z,0
2023-02-18T03:26:42.325Z,0
2023-02-18T03:31:46.705Z,0
2023-02-18T03:36:50.648Z,0
2023-02-18T03:41:52.917Z,0
2023-02-18T03:46:57.083Z,0
2023-02-18T03:51:59.360Z,0
2023-02-18T03:57:03.588Z,0
2023-02-18T04:02:07.696Z,0
2023-02-18T04:07:11.842Z,0
2023-02-18T04:12:15.979Z,0
2023-02-18T04:17:20.142Z,0
2023-02-18T04:22:24.333Z,0
2023-02-18T04:27:28.514Z,0
2023-02-18T04:32:32.671Z,0
2023-02-18T04:37:36.809Z,0
2023-02-18T04:42:40.941Z,0
2023-02-18T04:47:45.134Z,0
2023-02-18T04:52:49.366Z,0
2023-02-18T04:57:53.481Z,0
2023-02-18T05:02:57.633Z,0
2023-02-18T05:08:01.766Z,0
2023-02-18T05:13:05.946Z,0
2023-02-18T05:18:10.117Z,0
2023-02-18T05:28:18.469Z,0
2023-02-18T05:33:22.585Z,0
2023-02-18T05:38:26.781Z,0
2023-02-18T05:43:29.019Z,0
2023-02-18T05:48:33.242Z,0
2023-02-18T05:53:35.458Z,0
2023-02-18T05:58:39.602Z,0
2023-02-18T06:03:43.771Z,0
2023-02-18T06:08:47.976Z,0
2023-02-18T06:13:52.160Z,0
2023-02-18T06:18:56.587Z,0
2023-02-18T06:24:00.427Z,1
2023-02-18T06:29:04.592Z,5
2023-02-18T06:34:08.784Z,12
2023-02-18T06:39:12.921Z,22
2023-02-18T06:44:17.090Z,41
2023-02-18T06:49:21.287Z,63
2023-02-18T06:54:25.418Z,89
2023-02-18T06:59:29.565Z,144
2023-02-18T07:04:33.712Z,181
2023-02-18T07:09:37.876Z,237
2023-02-18T07:14:42.028Z,300
2023-02-18T07:19:46.237Z,451
2023-02-18T07:24:50.355Z,704
2023-02-18T07:29:54.561Z,1052
2023-02-18T07:34:58.678Z,945
2023-02-18T07:40:00.972Z,863
2023-02-18T07:45:05.150Z,541
2023-02-18T07:50:07.391Z,638
2023-02-18T07:55:11.566Z,645
2023-02-18T08:00:15.703Z,854
2023-02-18T08:05:19.905Z,1040
2023-02-18T08:10:24.034Z,1510
2023-02-18T08:15:28.213Z,1894
2023-02-18T08:20:32.362Z,1205
2023-02-18T08:25:36.506Z,1968
2023-02-18T08:30:40.861Z,3780
2023-02-18T08:35:44.876Z,4765
2023-02-18T08:40:49.037Z,5994
2023-02-18T08:45:53.241Z,4301
2023-02-18T08:50:57.356Z,2573
2023-02-18T08:56:01.483Z,3464
2023-02-18T09:01:06.042Z,2538
2023-02-18T09:06:09.850Z,2839
2023-02-18T09:11:14.003Z,3400
2023-02-18T09:16:18.254Z,2599
2023-02-18T09:21:22.340Z,2255
2023-02-18T09:26:26.534Z,1985
2023-02-18T09:31:30.758Z,1585
2023-02-18T09:36:32.905Z,1917
2023-02-18T09:41:37.056Z,1319
2023-02-18T09:46:41.216Z,1596
2023-02-18T09:51:43.500Z,1473
2023-02-18T09:56:47.665Z,1730
2023-02-18T10:01:51.845Z,1860
2023-02-18T10:06:56.028Z,1660
2023-02-18T10:12:00.142Z,2520
2023-02-18T10:17:04.323Z,2641
2023-02-18T10:22:08.466Z,2869
2023-02-18T10:27:12.654Z,4096
2023-02-18T10:32:16.811Z,3350
2023-02-18T10:37:20.938Z,3330
2023-02-18T10:42:25.206Z,2450
2023-02-18T10:47:29.285Z,5107
2023-02-18T10:52:33.528Z,6054
2023-02-18T10:57:37.586Z,4812
2023-02-18T11:02:41.766Z,6455
2023-02-18T11:07:45.935Z,4580
2023-02-18T11:12:50.095Z,2331
2023-02-18T11:17:54.241Z,3123
2023-02-18T11:22:58.385Z,3822
2023-02-18T11:28:02.566Z,4937
2023-02-18T11:33:06.743Z,5100
2023-02-18T11:38:08.994Z,3588
2023-02-18T11:43:13.145Z,5548
2023-02-18T11:48:15.443Z,4130
2023-02-18T11:53:19.606Z,7374
2023-02-18T11:58:23.751Z,2898
2023-02-18T12:03:27.972Z,2930
2023-02-18T12:08:32.090Z,3901
2023-02-18T12:13:36.246Z,5504
2023-02-18T12:18:42.652Z,5201
2023-02-18T12:23:46.836Z,4460
2023-02-18T12:28:48.989Z,4089
2023-02-18T12:33:52.907Z,3235
2023-02-18T12:38:57.067Z,4141
2023-02-18T12:44:01.221Z,3560
2023-02-18T12:49:05.354Z,5382
2023-02-18T12:54:09.542Z,3680
2023-02-18T12:59:13.738Z,2808
2023-02-18T13:04:17.831Z,2560
2023-02-18T13:09:22.014Z,3250
2023-02-18T13:14:26.197Z,3497
2023-02-18T13:19:30.368Z,4145
2023-02-18T13:24:34.531Z,4402
2023-02-18T13:29:38.686Z,3815
2023-02-18T13:34:40.940Z,2420
2023-02-18T13:39:45.112Z,2301
2023-02-18T13:44:49.278Z,3100
2023-02-18T13:49:53.409Z,2380
2023-02-18T13:54:57.584Z,3038
2023-02-18T14:00:01.740Z,2919
2023-02-18T14:05:05.932Z,2074
2023-02-18T14:10:10.058Z,1815
2023-02-18T14:15:14.218Z,2081
2023-02-18T14:20:18.400Z,1062
2023-02-18T14:25:22.545Z,801
2023-02-18T14:30:26.741Z,1340
2023-02-18T14:35:30.985Z,1453
2023-02-18T14:40:35.066Z,2910
2023-02-18T14:45:39.438Z,1991
2023-02-18T14:50:43.355Z,1061
2023-02-18T14:55:47.602Z,1334
2023-02-18T15:00:51.676Z,1728
2023-02-18T15:05:55.872Z,1355
2023-02-18T15:11:00.003Z,1378
2023-02-18T15:16:04.208Z,1558
2023-02-18T15:21:06.677Z,921
2023-02-18T15:26:11.024Z,972
2023-02-18T15:31:15.229Z,659
2023-02-18T15:36:17.024Z,465
2023-02-18T15:41:21.191Z,638
2023-02-18T15:46:25.608Z,387
2023-02-18T15:51:29.519Z,575
2023-02-18T15:56:33.704Z,910
2023-02-18T16:01:37.907Z,468
2023-02-18T16:06:41.977Z,534
2023-02-18T16:11:46.198Z,651
2023-02-18T16:16:50.376Z,343
2023-02-18T16:21:54.496Z,335
2023-02-18T16:32:02.850Z,226
2023-02-18T16:37:06.979Z,330
2023-02-18T16:42:11.165Z,126
2023-02-18T16:47:15.320Z,65
2023-02-18T16:52:19.544Z,31
2023-02-18T16:57:23.618Z,30
2023-02-18T17:02:27.757Z,18
2023-02-18T17:07:31.962Z,9
2023-02-18T17:12:41.122Z,4
2023-02-18T17:17:40.272Z,0
2023-02-18T17:22:42.530Z,0
2023-02-18T17:27:48.070Z,0
2023-02-18T17:32:48.967Z,0
2023-02-18T17:37:53.113Z,0
2023-02-18T17:42:57.286Z,0
2023-02-18T17:48:01.431Z,0
2023-02-18T17:53:05.621Z,0
2023-02-18T17:58:09.773Z,0
2023-02-18T18:03:13.915Z,0
2023-02-18T18:08:18.107Z,0
2023-02-18T18:13:22.254Z,0
2023-02-18T18:18:26.431Z,0
2023-02-18T18:23:30.574Z,0
2023-02-18T18:28:37.257Z,0
2023-02-18T18:33:38.919Z,0
2023-02-18T18:38:43.049Z,0
2023-02-18T18:43:47.243Z,0
2023-02-18T18:48:51.379Z,0
2023-02-18T18:53:55.589Z,0
2023-02-18T18:58:59.746Z,0
2023-02-18T19:04:03.940Z,0
2023-02-18T19:09:10.650Z,0
2023-02-18T19:14:12.194Z,0
2023-02-18T19:19:14.482Z,0
2023-02-18T19:24:18.664Z,0
2023-02-18T19:29:20.900Z,0
2023-02-18T19:34:25.090Z,0
2023-02-18T19:39:29.234Z,0
2023-02-18T19:44:31.473Z,0
2023-02-18T19:49:35.677Z,0
2023-02-18T19:54:39.833Z,0
2023-02-18T19:59:44.038Z,0
2023-02-18T20:04:48.196Z,0
2023-02-18T20:09:52.310Z,0
2023-02-18T20:14:54.610Z,0
2023-02-18T20:19:59.035Z,0
2023-02-18T20:25:02.907Z,0
2023-02-18T20:30:07.138Z,0
2023-02-18T20:35:11.223Z,0
2023-02-18T20:40:15.413Z,0
2023-02-18T20:45:19.531Z,0
2023-02-18T20:50:23.723Z,0
2023-02-18T20:55:27.868Z,0
2023-02-18T21:00:32.026Z,0
2023-02-18T21:05:36.211Z,0
2023-02-18T21:10:40.368Z,0
2023-02-18T21:15:44.576Z,0
2023-02-18T21:20:48.673Z,0
2023-02-18T21:25:52.856Z,0
2023-02-18T21:30:55.119Z,0
2023-02-18T21:35:59.294Z,0
2023-02-18T21:41:01.574Z,0
2023-02-18T21:46:05.701Z,0
2023-02-18T21:51:10.249Z,0
2023-02-18T21:56:14.029Z,0
2023-02-18T22:01:18.299Z,0
2023-02-18T22:06:22.356Z,0
2023-02-18T22:11:26.534Z,0
2023-02-18T22:16:30.754Z,0
2023-02-18T22:21:34.882Z,0
2023-02-18T22:26:39.007Z,0
2023-02-18T22:31:43.250Z,0
2023-02-18T22:36:47.290Z,0
2023-02-18T22:41:51.448Z,0
2023-02-18T22:46:55.686Z,0
2023-02-18T22:51:59.795Z,0
2023-02-18T22:57:03.961Z,0
2023-02-18T23:02:08.132Z,0
2023-02-18T23:07:12.324Z,0
2023-02-18T23:12:16.458Z,0
2023-02-18T23:17:20.639Z,0
2023-02-18T23:22:24.761Z,0
2023-02-18T23:27:27.038Z,0
2023-02-18T23:32:31.209Z,0
2023-02-18T23:37:33.459Z,0
2023-02-18T23:42:37.756Z,0
2023-02-18T23:47:41.827Z,0
2023-02-18T23:52:45.947Z,0
2023-02-18T23:57:50.139Z,0
